Spadeadam Airport, United Kingdom

9:24 PM BST on August 28, 2015 (GMT +0100)
South Tynedale | | Change Station
CLOSE
Current Station
Personal Weather Station
Location: Lambley,
Elevation: 594 ft
Nearby Weather Stations

Elev 594 ft 54.92 °N, 2.51 °W | Updated 6 seconds ago

Clear
Clear
55.9 °F
Feels Like 55.9 °F
N
2.0
Wind Variable Wind from ENE
Gusts 2.5 mph

Today
High -- | Low -- °F
--% Chance of Precip.
Yesterday
High -- | Low -- °F
Precip. -- in
6:08 AM 8:13 PM
Waxing Gibbous, 99% visible
Pressure 29.89 in
Visibility -9999.0 miles
Clouds
Dew Point 48 °F
Humidity 73%
Rainfall 0.00 in
Snow Depth Not available.
UV 0.0 out of 12
Pollen Not available.
Air Quality Not available.
Flu Activity Not available.
METAR EGNT 282020Z 23011KT 200V260 CAVOK 14/08 Q1012
Pressure 29.89 in
Visibility -9999.0 miles
Clouds
Dew Point 48 °F
Humidity 73%
Rainfall 0.00 in
Snow Depth Not available.
UV 0.0 out of 12
Pollen Not available.
Air Quality Not available.
Flu Activity Not available.
METAR EGNT 282020Z 23011KT 200V260 CAVOK 14/08 Q1012

10-Day Weather Forecast

×

Almanac

Astronomy

Aug. 28, 2015 Rise Set
Actual Time
Civil Twilight
Nautical Twilight
Astronomical Twilight
Moon
Length of Visible Light
Length of Day
Tomorrow will be .
, % of the Moon is Illuminated

Today's Extremes

Country Highs Country Lows

Community

WunderPhotos

Upload Photos

1,850,469 photos uploaded!

WunderBlogs® & News

Nearby

Air Quality

  Air Quality AQ Index Pollutant
Not available.

Snow Depth

Station Depth Elevation

Earthquake Activity

City Distance Mag. Time & Date
Minimum magnitude displayed is 2.5.

Coastal Water Temperatures

Place Temperature

Stations

Nearby Weather Stations

Station Location Temp. Windchill Dew Point Humidity Wind Precip. Elev Updated Type